ADDS METAR Data INFO
IDs: Format: Raw Decoded Include TAF

Data at: 0716 UTC 24 Jun 2018

KBUF 240654Z 00000KT 5SM BR OVC005 19/18 A2977 RMK AO2 SLP079 T01890178
KBUF 240554Z 00000KT 7SM BKN006 BKN043 19/18 A2977 RMK AO2 SLP080 T01890183 10211 20183 52002
KBUF 240544Z 33003KT 7SM BKN006 BKN043 19/18 A2977 RMK AO2 T01890183
KBUF 240537Z 33004KT 7SM SCT008 BKN043 18/18 A2977 RMK AO2 T01830178
KBUF 240515Z 35004KT 8SM BKN006 BKN022 18/18 A2977 RMK AO2 T01830178
KBUF 240454Z 35004KT 8SM OVC004 19/18 A2977 RMK AO2 SLP079 T01890183 402440167
KBUF 240426Z 34004KT 10SM BKN004 BKN021 18/17 A2977 RMK AO2 T01830172
KBUF 240424Z 34004KT 10SM FEW004 FEW021 18/17 A2977 RMK AO2 T01830172
KBUF 240401Z COR 02003KT 10SM FEW005 FEW015 SCT031 18/18 A2977 RMK AO2 T01830178
KBUF 240354Z 00000KT 10SM FEW005 SCT015 BKN028 19/18 A2977 RMK AO2 SLP078 T01890178
KBUF 240308Z 03004KT 10SM SCT005 BKN015 OVC028 19/18 A2977 RMK AO2 T01890178
KBUF 240254Z 03005KT 10SM BKN005 BKN015 OVC025 19/18 A2977 RMK AO2 SLP077 T01940183 51008
KBUF 240232Z 02005KT 10SM FEW005 BKN023 OVC060 19/18 A2976 RMK AO2 T01940183
KBUF 240225Z 02005KT 10SM FEW005 SCT023 BKN060 19/18 A2976 RMK AO2 T01940183
KBUF 240201Z 04004KT 10SM OVC060 20/18 A2975 RMK AO2 T02000183
KBUF 240154Z 06004KT 10SM BKN017 BKN070 20/18 A2975 RMK AO2 SLP073 T02000183
KBUF 240111Z 04003KT 10SM BKN017 BKN070 21/18 A2975 RMK AO2 T02060183
KBUF 240054Z 00000KT 10SM SCT019 BKN030 BKN070 BKN130 21/18 A2974 RMK AO2 SLP069 T02060183
KBUF 232354Z 04003KT 10SM FEW016 SCT022 BKN043 BKN130 21/18 A2973 RMK AO2 SLP065 T02110183 10244 20200 53005
KBUF 232254Z 04006KT 10SM SCT027 BKN034 OVC043 22/19 A2971 RMK AO2 SLP058 T02170189
KBUF 232154Z 02005KT 10SM FEW022 BKN040 OVC048 24/19 A2971 RMK AO2 SLP058 T02390189
KBUF 232147Z 04007KT 10SM SCT022 BKN031 BKN047 24/18 A2971 RMK AO2 T02390183
KBUF 232118Z 00000KT 10SM BKN023 OVC029 23/18 A2971 RMK AO2 T02330178
KBUF 232054Z 00000KT 10SM FEW022 BKN034 BKN075 BKN130 23/18 A2971 RMK AO2 SLP059 T02330178 56007
KBUF 231954Z 00000KT 10SM R23/6000VP6000FT FEW014 BKN040 BKN075 BKN130 BKN230 22/19 A2972 RMK AO2 SLP061 T02220189
KBUF 231918Z VRB03KT 10SM FEW012 BKN029 BKN034 21/18 A2973 RMK AO2 T02110183
KBUF 231854Z 00000KT 10SM SCT012 OVC032 21/18 A2973 RMK AO2 SLP065 T02110183
KBUF 231833Z 00000KT 10SM SCT012 OVC032 21/18 A2973 RMK AO2 T02110178
KBUF 231754Z 00000KT 10SM FEW010 BKN018 OVC028 20/18 A2974 RMK AO2 RAE51 SLP067 P0009 60009 T02000178 10206 20178 58007
KBUF 231728Z 17003KT 3SM -RA BR FEW014 BKN028 OVC033 19/18 A2974 RMK AO2 P0008 T01940183
KBUF 231717Z 16005KT 2SM R23/5000VP6000FT -RA BR FEW008 BKN025 OVC036 19/18 A2975 RMK AO2 P0007 T01890183
KBUF 231702Z 22004KT 2SM RA BR SCT016 BKN023 OVC028 19/18 A2975 RMK AO2 P0002 T01890178
KBUF 231654Z 24007KT 4SM -RA BR BKN018 OVC026 19/17 A2975 RMK AO2 RAB04E15B43 SLP071 P0000 T01940172
KBUF 231554Z 21003KT 10SM BKN027 OVC035 21/17 A2976 RMK AO2 SLP074 T02060167
KBUF 231454Z 18004KT 10SM FEW030 OVC038 20/17 A2976 RMK AO2 RAB07E28 SLP075 P0000 60000 T02000167 58007
KBUF 231354Z 14003KT 10SM OVC034 19/16 A2977 RMK AO2 RAE1259 SLP078 P0000 T01890161
KBUF 231254Z 14005KT 10SM -RA BKN037 OVC048 18/16 A2978 RMK AO2 RAB08 SLP081 P0000 T01830161
KBUF 231154Z 11005KT 10SM BKN041 OVC050 18/16 A2978 RMK AO2 RAB1059E23 SLP082 P0000 60004 70007 T01780156 10189 20167 56006
KBUF 231054Z 10006KT 10SM SCT035 OVC043 17/15 A2979 RMK AO2 SLP084 T01670150
KBUF 230954Z 11007KT 10SM FEW035 OVC043 17/15 A2979 RMK AO2 SLP085 T01670150
KBUF 230854Z 10006KT 10SM SCT028 OVC042 17/15 A2980 RMK AO2 RAE23 SLP088 P0004 60004 T01670150 56013
KBUF 230816Z 13005KT 7SM -RA SCT027 BKN055 OVC110 17/15 A2980 RMK AO2 P0004 T01720150
KBUF 230754Z 15010KT 10SM -RA BKN028 OVC045 18/14 A2981 RMK AO2 RAB23 SLP092 P0000 T01780144
KBUF 230735Z 14006KT 10SM -RA BKN028 OVC045 18/14 A2981 RMK AO2 RAB23 P0000 T01830144
KBUF 230709Z 13007KT 10SM OVC030 19/14 A2982 RMK AO2 T01890139
KBUF 230654Z 12007KT 10SM BKN029 OVC040 19/14 A2982 RMK AO2 SLP096 T01890139
KBUF 230643Z 13009KT 10SM BKN029 OVC040 19/14 A2983 RMK AO2 T01890139
KBUF 230554Z 12007KT 10SM SCT036 BKN048 OVC060 19/15 A2984 RMK AO2 SLP100 60003 T01890150 10228 20189 56013
KBUF 230454Z 09008KT 10SM BKN050 OVC060 19/16 A2985 RMK AO2 SLP105 T01890156 402330117
KBUF 230354Z 10008KT 10SM FEW028 BKN065 BKN080 OVC140 19/16 A2986 RMK AO2 SLP110 T01890161
KBUF 230254Z 08005KT 10SM FEW028 BKN060 BKN095 OVC160 19/17 A2988 RMK AO2 RAE02 SLP115 P0000 60003 T01940172 50000
KBUF 230202Z 13005KT 10SM SCT024 BKN065 OVC100 19/17 A2988 RMK AO2 RAE02 P0000 T01940167
KBUF 230154Z 14010KT 9SM -RA BKN026 BKN065 OVC100 20/16 A2989 RMK AO2 SLP118 P0003 T02000161
KBUF 230128Z 15007KT 9SM -RA BKN028 BKN046 OVC100 21/16 A2988 RMK AO2 P0000 T02060161
KBUF 230054Z 17005KT 10SM -RA FEW042 BKN060 BKN070 OVC140 21/15 A2988 RMK AO2 RAB26 SLP115 P0000 T02110150
KBUF 222354Z 16007KT 10SM BKN044 BKN055 OVC070 23/12 A2988 RMK AO2 WSHFT 2329 SLP115 60000 T02280122 10228 20217 55002
KBUF 222347Z 16013KT 10SM SCT039 BKN047 OVC070 23/12 A2988 RMK AO2 WSHFT 2329 SHRA DSNT SW T02280122
KBUF 222254Z 06005KT 10SM BKN040 BKN080 OVC140 22/15 A2987 RMK AO2 SLP113 SHRA DSNT S T02170150
KBUF 222154Z 04008KT 10SM FEW050 BKN110 OVC190 22/15 A2987 RMK AO2 SLP114 SHRA DSNT SE-S T02170150
KBUF 222054Z 07010KT 10SM SCT050 BKN110 OVC160 23/14 A2988 RMK AO2 RAB00E21 SLP117 P0000 60000 T02280139 58012
KBUF 221954Z 06009KT 10SM FEW055 BKN110 BKN180 BKN240 22/14 A2990 RMK AO2 RAE40 SLP122 SHRA DSNT NE-E AND SW-NW P0000 T02220139